createdAt,value
2023-03-03T00:02:37.820Z,10.93
2023-03-03T00:05:26.768Z,12.52
2023-03-03T00:07:58.402Z,9.98
2023-03-03T00:10:39.270Z,11.32
2023-03-03T00:13:36.602Z,10.25
2023-03-03T00:19:43.062Z,11.93
2023-03-03T00:22:46.906Z,11.15
2023-03-03T00:25:31.287Z,12.65
2023-03-03T00:28:21.210Z,12.77
2023-03-03T00:30:48.643Z,14.93
2023-03-03T00:33:28.531Z,14.32
2023-03-03T00:35:57.125Z,9.48
2023-03-03T00:38:24.461Z,13.55
2023-03-03T00:40:51.857Z,10.80
2023-03-03T00:43:33.248Z,12.80
2023-03-03T00:46:19.212Z,10.50
2023-03-03T00:52:21.983Z,10.90
2023-03-03T00:54:59.402Z,8.70
2023-03-03T00:57:39.335Z,11.10
2023-03-03T01:00:22.780Z,11.45
2023-03-03T01:03:02.183Z,14.65
2023-03-03T01:05:53.028Z,12.15
2023-03-03T01:08:35.383Z,14.50
2023-03-03T01:13:59.039Z,15.32
2023-03-03T01:16:27.568Z,18.75
2023-03-03T01:18:54.848Z,13.38
2023-03-03T01:21:22.479Z,13.35
2023-03-03T01:23:49.761Z,8.55
2023-03-03T01:26:45.569Z,13.80
2023-03-03T01:29:50.387Z,16.88
2023-03-03T01:32:33.509Z,11.65
2023-03-03T01:35:24.244Z,10.90
2023-03-03T01:38:24.843Z,10.50
2023-03-03T01:44:31.612Z,11.30
2023-03-03T01:47:19.382Z,12.77
2023-03-03T01:50:18.277Z,9.95
2023-03-03T01:53:03.268Z,12.75
2023-03-03T01:55:36.142Z,11.63
2023-03-03T01:58:06.410Z,12.23
2023-03-03T02:00:36.881Z,11.30
2023-03-03T02:03:07.699Z,11.27
2023-03-03T02:05:36.428Z,11.10
2023-03-03T02:08:03.888Z,10.77
2023-03-03T02:10:31.759Z,13.57
2023-03-03T02:12:59.966Z,11.40
2023-03-03T02:15:29.165Z,14.80
2023-03-03T02:17:58.334Z,10.77
2023-03-03T02:20:49.779Z,11.80
2023-03-03T02:23:21.134Z,12.20
2023-03-03T02:25:59.512Z,13.38
2023-03-03T02:28:31.551Z,10.45
2023-03-03T02:31:03.726Z,13.13
2023-03-03T02:33:31.101Z,10.93
2023-03-03T02:35:58.655Z,15.40
2023-03-03T02:38:38.363Z,17.15
2023-03-03T02:41:22.133Z,13.75
2023-03-03T02:44:01.375Z,16.85
2023-03-03T02:46:38.164Z,14.93
2023-03-03T02:49:07.082Z,15.43
2023-03-03T02:51:34.496Z,15.60
2023-03-03T02:54:02.658Z,13.27
2023-03-03T02:56:32.768Z,18.63
2023-03-03T02:59:00.862Z,12.68
2023-03-03T03:01:35.394Z,14.55
2023-03-03T03:04:24.168Z,12.63
2023-03-03T03:09:25.989Z,20.95
2023-03-03T03:11:55.120Z,17.38
2023-03-03T03:14:25.740Z,22.10
2023-03-03T03:16:54.828Z,21.15
2023-03-03T03:19:22.174Z,20.25
2023-03-03T03:21:49.583Z,15.32
2023-03-03T03:24:18.536Z,16.15
2023-03-03T03:26:52.958Z,16.13
2023-03-03T03:29:22.650Z,16.17
2023-03-03T03:31:50.550Z,18.35
2023-03-03T03:34:22.091Z,14.43
2023-03-03T03:36:59.642Z,15.93
2023-03-03T03:39:59.205Z,15.05
2023-03-03T03:42:33.655Z,20.90
2023-03-03T03:48:22.970Z,20.63
2023-03-03T03:51:01.257Z,16.23
2023-03-03T03:56:35.249Z,19.65
2023-03-03T03:59:20.686Z,17.73
2023-03-03T04:02:04.869Z,17.10
2023-03-03T04:04:42.280Z,17.67
2023-03-03T04:07:27.378Z,21.60
2023-03-03T04:10:32.620Z,19.55
2023-03-03T04:13:16.171Z,34.95
2023-03-03T04:15:46.924Z,21.02
2023-03-03T04:18:14.639Z,17.15
2023-03-03T04:20:42.348Z,21.05
2023-03-03T04:23:10.796Z,17.80
2023-03-03T04:25:38.463Z,18.67
2023-03-03T04:28:14.161Z,15.25
2023-03-03T04:30:44.616Z,16.15
2023-03-03T04:33:12.433Z,13.43
2023-03-03T04:35:41.267Z,17.98
2023-03-03T04:38:08.785Z,17.95
2023-03-03T04:40:36.826Z,24.80
2023-03-03T04:43:04.523Z,18.02
2023-03-03T04:45:32.645Z,17.30
2023-03-03T04:48:00.569Z,20.48
2023-03-03T04:50:30.928Z,19.45
2023-03-03T04:53:00.842Z,20.95
2023-03-03T04:55:35.664Z,20.45
2023-03-03T05:02:09.841Z,21.48
2023-03-03T05:05:04.382Z,23.63
2023-03-03T05:07:35.477Z,21.58
2023-03-03T05:10:19.497Z,22.38
2023-03-03T05:12:56.188Z,21.02
2023-03-03T05:19:02.997Z,17.80
2023-03-03T05:21:54.866Z,19.90
2023-03-03T05:24:30.266Z,23.08
2023-03-03T05:30:30.008Z,24.95
2023-03-03T05:33:14.302Z,22.30
2023-03-03T05:36:11.399Z,19.33
2023-03-03T05:38:46.792Z,19.50
2023-03-03T05:45:06.353Z,22.77
2023-03-03T05:49:09.419Z,19.10
2023-03-03T05:51:43.274Z,21.20
2023-03-03T05:55:19.673Z,20.50
2023-03-03T06:01:18.989Z,24.33
2023-03-03T06:04:22.560Z,23.77
2023-03-03T06:07:07.658Z,25.58
2023-03-03T06:09:48.333Z,30.92
2023-03-03T06:12:37.159Z,25.23
2023-03-03T06:15:33.710Z,31.25
2023-03-03T06:18:04.490Z,28.83
2023-03-03T06:20:35.530Z,31.80
2023-03-03T06:23:07.005Z,35.72
2023-03-03T06:28:44.133Z,30.33
2023-03-03T06:31:19.807Z,30.75
2023-03-03T06:37:02.405Z,28.58
2023-03-03T06:39:33.768Z,31.00
2023-03-03T06:42:22.820Z,36.97
2023-03-03T06:48:09.549Z,34.95
2023-03-03T06:50:47.822Z,31.05
2023-03-03T06:56:46.072Z,31.23
2023-03-03T06:59:53.728Z,32.42
2023-03-03T07:02:48.626Z,30.50
2023-03-03T07:12:54.873Z,21.00
2023-03-03T07:15:45.822Z,37.03
2023-03-03T07:22:52.161Z,75.88
2023-03-03T07:26:07.409Z,50.58
2023-03-03T07:29:03.820Z,32.50
2023-03-03T07:39:49.182Z,32.75
2023-03-03T07:42:45.557Z,33.17
2023-03-03T07:45:49.025Z,25.92
2023-03-03T07:48:33.696Z,26.95
2023-03-03T08:05:35.933Z,60.70
2023-03-03T08:08:03.662Z,32.70
2023-03-03T08:10:39.339Z,33.88
2023-03-03T08:13:14.086Z,36.25
2023-03-03T08:15:41.453Z,35.20
2023-03-03T08:18:38.283Z,37.65
2023-03-03T08:21:05.802Z,31.75
2023-03-03T08:23:36.314Z,31.08
2023-03-03T08:26:03.641Z,39.47
2023-03-03T08:28:31.400Z,32.55
2023-03-03T08:31:14.301Z,33.60
2023-03-03T08:33:44.537Z,34.85
2023-03-03T08:36:12.216Z,35.67
2023-03-03T08:38:40.505Z,33.45
2023-03-03T08:41:08.010Z,33.17
2023-03-03T08:43:35.503Z,35.35
2023-03-03T08:46:05.338Z,33.70
2023-03-03T08:48:33.704Z,34.95
2023-03-03T08:51:01.606Z,31.90
2023-03-03T08:53:29.245Z,32.78
2023-03-03T08:55:56.595Z,34.30
2023-03-03T08:58:34.723Z,39.13
2023-03-03T09:01:03.396Z,30.83
2023-03-03T09:03:30.936Z,29.92
2023-03-03T09:05:58.335Z,32.20
2023-03-03T09:08:25.651Z,27.20
2023-03-03T09:10:53.481Z,34.30
2023-03-03T09:13:21.220Z,31.35
2023-03-03T09:15:50.374Z,28.60
2023-03-03T09:18:19.045Z,33.70
2023-03-03T09:20:48.084Z,37.85
2023-03-03T09:23:26.281Z,28.33
2023-03-03T09:25:53.754Z,29.90
2023-03-03T09:28:28.483Z,34.88
2023-03-03T09:30:58.180Z,34.58
2023-03-03T09:33:30.316Z,37.28
2023-03-03T09:36:19.743Z,42.53
2023-03-03T09:38:47.832Z,34.47
2023-03-03T09:41:17.877Z,36.47
2023-03-03T09:43:57.390Z,32.95
2023-03-03T09:46:35.720Z,31.20
2023-03-03T09:49:15.351Z,34.97
2023-03-03T09:51:42.724Z,41.00
2023-03-03T09:54:10.124Z,30.83
2023-03-03T09:56:43.387Z,29.48
2023-03-03T09:59:25.959Z,30.42
2023-03-03T10:02:13.587Z,31.65
2023-03-03T10:04:40.909Z,36.25
2023-03-03T10:07:14.498Z,34.92
2023-03-03T10:10:00.746Z,35.05
2023-03-03T10:12:30.161Z,38.85
2023-03-03T10:15:03.438Z,41.30
2023-03-03T10:17:30.882Z,42.65
2023-03-03T10:20:04.057Z,33.92
2023-03-03T10:22:40.011Z,33.33
2023-03-03T10:25:16.737Z,33.10
2023-03-03T10:27:47.206Z,32.85
2023-03-03T10:30:38.265Z,38.63
2023-03-03T10:33:24.089Z,34.17
2023-03-03T10:36:09.900Z,38.72
2023-03-03T10:38:43.479Z,37.22
2023-03-03T10:41:13.960Z,39.35
2023-03-03T10:43:41.418Z,48.88
2023-03-03T10:46:27.708Z,36.45
2023-03-03T10:48:55.097Z,62.45
2023-03-03T10:51:25.387Z,50.22
2023-03-03T10:54:04.330Z,37.10
2023-03-03T10:56:53.305Z,35.28
2023-03-03T10:59:23.864Z,34.00
2023-03-03T11:01:58.693Z,33.75
2023-03-03T11:04:26.314Z,37.88
2023-03-03T11:07:12.765Z,35.10
2023-03-03T11:09:40.851Z,36.53
2023-03-03T11:12:10.944Z,60.67
2023-03-03T11:14:47.977Z,32.70
2023-03-03T11:17:15.289Z,33.80
2023-03-03T11:19:45.512Z,40.05
2023-03-03T11:22:19.160Z,50.65
2023-03-03T11:24:52.006Z,44.67
2023-03-03T11:27:28.452Z,35.78
2023-03-03T11:30:13.246Z,35.38
2023-03-03T11:32:45.547Z,40.28
2023-03-03T11:35:32.009Z,31.15
2023-03-03T11:37:59.431Z,36.38
2023-03-03T11:40:49.398Z,42.17
2023-03-03T11:43:35.409Z,32.88
2023-03-03T11:46:06.357Z,34.55
2023-03-03T11:48:42.667Z,34.70
2023-03-03T11:51:13.032Z,34.65
2023-03-03T11:53:40.846Z,30.83
2023-03-03T11:56:14.345Z,35.88
2023-03-03T11:58:52.870Z,33.70
2023-03-03T12:01:31.724Z,31.52
2023-03-03T12:04:14.164Z,72.13
2023-03-03T12:06:41.691Z,28.60
2023-03-03T12:09:12.521Z,26.58
2023-03-03T12:12:12.295Z,26.33
2023-03-03T12:14:39.651Z,29.08
2023-03-03T12:17:14.293Z,35.97
2023-03-03T12:20:08.205Z,35.58
2023-03-03T12:22:45.936Z,95.85
2023-03-03T12:25:23.602Z,31.45
2023-03-03T12:28:09.307Z,45.03
2023-03-03T12:30:55.324Z,30.05
2023-03-03T12:33:59.303Z,30.98
2023-03-03T12:36:48.465Z,28.05
2023-03-03T12:39:25.358Z,33.13
2023-03-03T12:42:03.874Z,28.75
2023-03-03T12:44:52.022Z,39.25
2023-03-03T12:47:25.778Z,31.70
2023-03-03T12:50:07.022Z,30.98
2023-03-03T12:53:09.928Z,28.48
2023-03-03T12:55:53.460Z,38.47
2023-03-03T12:58:29.594Z,26.70
2023-03-03T13:01:15.994Z,26.20
2023-03-03T13:03:54.928Z,22.52
2023-03-03T13:06:43.282Z,27.20
2023-03-03T13:09:29.303Z,26.20
2023-03-03T13:12:16.702Z,22.17
2023-03-03T13:14:58.214Z,34.78
2023-03-03T13:17:32.524Z,26.37
2023-03-03T13:20:01.535Z,28.50
2023-03-03T13:22:38.740Z,26.10
2023-03-03T13:25:25.143Z,25.10
2023-03-03T13:27:55.504Z,26.25
2023-03-03T13:30:34.291Z,24.08
2023-03-03T13:33:07.207Z,29.83
2023-03-03T13:35:41.797Z,23.25
2023-03-03T13:38:19.180Z,30.80
2023-03-03T13:40:49.336Z,24.75
2023-03-03T13:43:25.155Z,26.83
2023-03-03T13:46:11.596Z,25.77
2023-03-03T13:48:58.234Z,22.25
2023-03-03T13:51:44.082Z,29.08
2023-03-03T13:54:31.195Z,29.27
2023-03-03T13:57:17.619Z,24.98
2023-03-03T13:59:51.783Z,27.10
2023-03-03T14:02:33.026Z,32.08
2023-03-03T14:05:06.055Z,33.08
2023-03-03T14:07:53.125Z,31.55
2023-03-03T14:10:23.417Z,27.17
2023-03-03T14:13:05.927Z,27.90
2023-03-03T14:15:39.464Z,30.10
2023-03-03T14:18:19.346Z,28.30
2023-03-03T14:20:54.034Z,25.95
2023-03-03T14:23:21.958Z,24.85
2023-03-03T14:25:54.296Z,22.55
2023-03-03T14:28:27.402Z,29.95
2023-03-03T14:33:32.352Z,24.73
2023-03-03T14:36:01.198Z,25.65
2023-03-03T14:38:34.723Z,31.58
2023-03-03T14:41:13.932Z,23.30
2023-03-03T14:43:43.183Z,55.80
2023-03-03T14:46:23.488Z,26.10
2023-03-03T14:48:52.169Z,26.02
2023-03-03T14:51:39.856Z,27.38
2023-03-03T14:54:27.112Z,23.67
2023-03-03T14:56:56.959Z,23.45
2023-03-03T14:59:26.767Z,29.42
2023-03-03T15:02:13.044Z,25.05
2023-03-03T15:04:40.432Z,27.23
2023-03-03T15:07:26.843Z,28.55
2023-03-03T15:09:54.171Z,28.00
2023-03-03T15:12:23.733Z,26.20
2023-03-03T15:14:52.455Z,27.13
2023-03-03T15:17:36.776Z,22.75
2023-03-03T15:20:26.391Z,20.23
2023-03-03T15:23:04.352Z,25.88
2023-03-03T15:25:49.171Z,23.25
2023-03-03T15:28:22.571Z,23.95
2023-03-03T15:30:55.772Z,22.45
2023-03-03T15:33:23.147Z,25.40
2023-03-03T15:35:57.944Z,25.48
2023-03-03T15:38:31.249Z,24.48
2023-03-03T15:41:05.095Z,25.80
2023-03-03T15:43:45.274Z,22.20
2023-03-03T15:46:26.329Z,25.55
2023-03-03T15:48:59.879Z,24.83
2023-03-03T15:52:02.193Z,27.58
2023-03-03T15:54:31.009Z,24.83
2023-03-03T15:56:59.728Z,21.52
2023-03-03T15:59:36.364Z,27.63
2023-03-03T16:02:06.902Z,25.13
2023-03-03T16:04:36.859Z,28.77
2023-03-03T16:07:10.325Z,24.33
2023-03-03T16:09:56.682Z,25.65
2023-03-03T16:12:36.257Z,24.23
2023-03-03T16:15:21.001Z,24.85
2023-03-03T16:18:17.826Z,24.35
2023-03-03T16:21:05.446Z,26.90
2023-03-03T16:23:40.130Z,23.95
2023-03-03T16:26:16.678Z,27.35
2023-03-03T16:28:48.760Z,27.55
2023-03-03T16:31:19.844Z,25.02
2023-03-03T16:33:59.662Z,25.20
2023-03-03T16:36:36.116Z,34.20
2023-03-03T16:39:13.659Z,28.35
2023-03-03T16:41:47.062Z,32.25
2023-03-03T16:44:28.866Z,27.42
2023-03-03T16:47:01.843Z,24.42
2023-03-03T16:49:39.985Z,26.92
2023-03-03T16:52:14.794Z,28.23
2023-03-03T16:54:54.349Z,30.77
2023-03-03T16:57:38.931Z,27.83
2023-03-03T17:00:22.012Z,29.70
2023-03-03T17:03:02.202Z,30.42
2023-03-03T17:05:35.146Z,32.85
2023-03-03T17:08:02.496Z,39.13
2023-03-03T17:10:42.160Z,44.63
2023-03-03T17:13:15.999Z,66.32
2023-03-03T17:16:03.050Z,84.90
2023-03-03T17:18:38.770Z,74.30
2023-03-03T17:21:15.439Z,73.68
2023-03-03T17:23:51.468Z,55.58
2023-03-03T17:26:37.379Z,48.25
2023-03-03T17:29:31.567Z,45.10
2023-03-03T17:32:02.215Z,38.78
2023-03-03T17:34:48.202Z,43.15
2023-03-03T17:37:16.453Z,36.47
2023-03-03T17:39:52.873Z,38.38
2023-03-03T17:42:34.725Z,31.92
2023-03-03T17:45:11.701Z,33.35
2023-03-03T17:47:57.087Z,36.75
2023-03-03T17:50:27.469Z,39.45
2023-03-03T17:53:13.864Z,36.70
2023-03-03T17:55:49.894Z,38.03
2023-03-03T17:58:24.131Z,30.58
2023-03-03T18:01:10.066Z,40.90
2023-03-03T18:03:40.291Z,34.60
2023-03-03T18:06:14.951Z,32.53
2023-03-03T18:08:42.309Z,30.67
2023-03-03T18:11:15.815Z,30.98
2023-03-03T18:13:45.909Z,31.48
2023-03-03T18:16:13.357Z,34.20
2023-03-03T18:18:49.808Z,36.30
2023-03-03T18:21:20.048Z,35.58
2023-03-03T18:23:49.065Z,37.33
2023-03-03T18:26:31.446Z,33.65
2023-03-03T18:29:17.274Z,31.13
2023-03-03T18:32:04.914Z,30.90
2023-03-03T18:34:36.363Z,31.35
2023-03-03T18:37:03.667Z,33.92
2023-03-03T18:39:36.819Z,33.70
2023-03-03T18:42:05.369Z,32.13
2023-03-03T18:44:32.871Z,35.60
2023-03-03T18:47:00.409Z,35.58
2023-03-03T18:49:46.585Z,34.53
2023-03-03T18:52:16.986Z,40.13
2023-03-03T18:54:44.341Z,35.47
2023-03-03T18:57:18.363Z,35.25
2023-03-03T19:00:06.021Z,39.95
2023-03-03T19:02:39.005Z,38.75
2023-03-03T19:05:12.459Z,39.97
2023-03-03T19:07:40.123Z,39.53
2023-03-03T19:10:22.501Z,49.30
2023-03-03T19:12:57.673Z,39.38
2023-03-03T19:15:31.200Z,42.50
2023-03-03T19:18:01.328Z,38.72
2023-03-03T19:20:39.943Z,45.92
2023-03-03T19:23:21.888Z,41.10
2023-03-03T19:26:08.049Z,42.95
2023-03-03T19:28:42.373Z,41.25
2023-03-03T19:31:30.435Z,49.38
2023-03-03T19:34:06.268Z,42.55
2023-03-03T19:36:43.743Z,47.47
2023-03-03T19:39:30.038Z,45.47
2023-03-03T19:42:06.297Z,52.88
2023-03-03T19:44:52.402Z,52.17
2023-03-03T19:47:38.279Z,49.95
2023-03-03T19:50:11.023Z,44.78
2023-03-03T19:52:38.336Z,40.60
2023-03-03T19:55:14.928Z,41.83
2023-03-03T19:57:42.277Z,43.97
2023-03-03T20:00:18.635Z,37.63
2023-03-03T20:03:04.901Z,42.40
2023-03-03T20:05:41.408Z,42.92
2023-03-03T20:08:08.763Z,39.50
2023-03-03T20:10:38.136Z,42.22
2023-03-03T20:13:12.135Z,40.40
2023-03-03T20:15:52.355Z,45.20
2023-03-03T20:18:38.816Z,42.50
2023-03-03T20:21:09.224Z,49.65
2023-03-03T20:23:36.679Z,42.08
2023-03-03T20:26:13.150Z,43.90
2023-03-03T20:28:59.240Z,48.38
2023-03-03T20:31:33.905Z,45.03
2023-03-03T20:34:01.353Z,48.22
2023-03-03T20:36:46.417Z,44.33
2023-03-03T20:39:26.741Z,34.95
2023-03-03T20:42:07.977Z,39.38
2023-03-03T20:44:35.296Z,43.23
2023-03-03T20:47:14.848Z,44.90
2023-03-03T20:50:10.009Z,49.85
2023-03-03T20:52:47.787Z,55.08
2023-03-03T20:55:15.319Z,54.42
2023-03-03T20:57:52.249Z,60.47
2023-03-03T21:00:19.823Z,51.85
2023-03-03T21:02:51.383Z,45.88
2023-03-03T21:05:22.990Z,44.90
2023-03-03T21:07:51.875Z,45.70
2023-03-03T21:10:24.273Z,39.60
2023-03-03T21:12:52.891Z,36.97
2023-03-03T21:15:30.482Z,38.75
2023-03-03T21:17:58.947Z,47.28
2023-03-03T21:20:28.318Z,45.10
2023-03-03T21:22:56.852Z,44.22
2023-03-03T21:25:53.490Z,49.33
2023-03-03T21:28:24.028Z,47.97
2023-03-03T21:31:06.904Z,48.75
2023-03-03T21:33:45.230Z,43.72
2023-03-03T21:36:32.916Z,36.83
2023-03-03T21:39:02.178Z,37.90
2023-03-03T21:41:49.610Z,48.45
2023-03-03T21:44:29.692Z,39.17
2023-03-03T21:46:58.644Z,45.97
2023-03-03T21:49:26.354Z,43.13
2023-03-03T21:51:54.024Z,44.83
2023-03-03T21:54:21.435Z,40.90
2023-03-03T21:56:50.014Z,39.88
2023-03-03T21:59:20.830Z,37.00
2023-03-03T22:01:48.153Z,32.35
2023-03-03T22:04:15.595Z,31.05
2023-03-03T22:06:43.141Z,34.55
2023-03-03T22:09:10.459Z,37.03
2023-03-03T22:11:39.658Z,38.05
2023-03-03T22:14:07.808Z,33.90
2023-03-03T22:16:35.709Z,34.65
2023-03-03T22:19:03.558Z,40.78
2023-03-03T22:21:31.347Z,41.13
2023-03-03T22:23:58.932Z,27.67
2023-03-03T22:26:26.232Z,33.72
2023-03-03T22:28:53.568Z,31.98
2023-03-03T22:31:21.195Z,33.30
2023-03-03T22:33:49.166Z,33.03
2023-03-03T22:36:16.945Z,38.40
2023-03-03T22:38:50.783Z,33.15
2023-03-03T22:41:31.703Z,31.85
2023-03-03T22:44:03.016Z,34.72
2023-03-03T22:46:51.913Z,40.10
2023-03-03T22:49:31.267Z,36.03
2023-03-03T22:52:12.777Z,29.73
2023-03-03T22:54:48.609Z,29.20
2023-03-03T22:57:51.630Z,38.40
2023-03-03T23:03:19.377Z,32.80
2023-03-03T23:06:04.483Z,37.38
2023-03-03T23:08:57.278Z,39.25
2023-03-03T23:11:39.359Z,37.08
2023-03-03T23:14:27.952Z,38.55
2023-03-03T23:16:55.812Z,32.38
2023-03-03T23:19:36.739Z,35.50
2023-03-03T23:22:22.933Z,30.77
2023-03-03T23:25:06.970Z,30.40
2023-03-03T23:31:05.669Z,36.60
2023-03-03T23:33:43.392Z,36.30
2023-03-03T23:36:35.887Z,30.63
2023-03-03T23:39:22.025Z,36.47
2023-03-03T23:45:14.249Z,32.03
2023-03-03T23:48:11.923Z,34.72
2023-03-03T23:51:33.197Z,30.02
2023-03-03T23:54:00.580Z,32.38
2023-03-03T23:56:27.973Z,42.35
2023-03-03T23:58:55.432Z,41.28
